ZSNJ

Nanjing Lukou Airport

Nanjing, China
TAF ZSNJ 211909Z 2200/2224 27004MPS 3000 HZ NSC TX10/2206Z TN00/2222Z
Issued Valid From Valid To
Jan-21 @ 19:09 UTC
(5 hours ago)
Jan-22 @ 00:00 UTC
(8 minutes ago)
Jan-23 @ 00:00 UTC
(in 24 hours)
Jan-22 @ 00:00 to Jan-23 @ 00:00
TAF ZSNJ 211909Z 2200/2224 27004MPS 3000 HZ NSC TX10/2206Z TN00/2222Z
Wind Visibility Clouds Conditions
270° at 8 knots 2,993 meters
  • No significant clouds
  • Haze
TAF ZSNJ 211909Z 2200/2224 27004MPS 3000 HZ NSC TX10/2206Z TN00/2222Z
Issued Jan-21 @ 19:09 UTC
(5 hours ago)
Valid From Jan-22 @ 00:00 UTC
(8 minutes ago)
Valid To Jan-23 @ 00:00 UTC
(in 24 hours)
Jan-22 @ 00:00 - Jan-23 @ 00:00
Wind Visibility
270° at 8 knots 2,993 meters
Clouds
  • No significant clouds
Conditions
  • Haze